Time;durP1;ratioP1;P1;durP2;ratioP2;P2;SDS_P1;SDS_P2;PMS_P1;PMS_P2;Temp;Humidity;BMP_temperature;BMP_pressure;BME280_temperature;BME280_humidity;BME280_pressure;Samples;Min_cycle;Max_cycle;Signal;HPM_P1;HPM_P2
2021/01/23 07:48:28;;;;;;;0.30;0.30;;;17.60;68.30;;;;;;5065263;28;20487;-40
2021/01/23 07:50:56;;;;;;;0.20;0.20;;;17.90;67.70;;;;;;5038076;28;20138;-42
2021/01/23 07:53:22;;;;;;;0.40;0.40;;;17.90;67.40;;;;;;5064943;28;20032;-35
2021/01/23 07:55:49;;;;;;;0.43;0.38;;;18.00;68.10;;;;;;5071541;28;20032;-40
2021/01/23 07:58:14;;;;;;;0.38;0.35;;;18.00;66.90;;;;;;5063919;28;20024;-27
2021/01/23 08:00:40;;;;;;;0.38;0.30;;;18.00;67.10;;;;;;5043659;28;20057;-37
2021/01/23 08:03:06;;;;;;;1.65;0.30;;;18.00;67.10;;;;;;5067008;28;20056;-36
2021/01/23 08:05:48;;;;;;;0.57;0.40;;;18.10;66.60;;;;;;5073797;28;20160;-49
2021/01/23 08:08:36;;;;;;;1.98;0.40;;;18.10;66.60;;;;;;5068745;28;20028;-43
2021/01/23 08:11:03;;;;;;;0.22;0.22;;;18.10;66.20;;;;;;5072980;28;20024;-41
2021/01/23 08:13:30;;;;;;;5.30;0.40;;;18.10;66.60;;;;;;5081065;28;20079;-44
2021/01/23 08:16:12;;;;;;;0.73;0.50;;;18.10;66.70;;;;;;5072623;28;20105;-47
2021/01/23 08:18:37;;;;;;;0.70;0.40;;;18.10;66.80;;;;;;5060795;28;20032;-46
2021/01/23 08:21:24;;;;;;;0.77;0.30;;;18.10;67.60;;;;;;5058110;28;20444;-48
2021/01/23 08:23:50;;;;;;;1.20;0.50;;;18.10;66.80;;;;;;5077952;28;20453;-46
2021/01/23 08:26:16;;;;;;;0.47;0.38;;;18.10;66.90;;;;;;5078614;28;20036;-46
2021/01/23 08:28:43;;;;;;;0.82;0.40;;;18.10;66.80;;;;;;5080391;28;20501;-46
2021/01/23 08:31:30;;;;;;;0.35;0.20;;;18.10;66.70;;;;;;5081075;28;20040;-46
2021/01/23 08:33:56;;;;;;;2.75;0.40;;;18.10;66.90;;;;;;5080098;28;20513;-47
2021/01/23 08:36:28;;;;;;;2.08;0.40;;;18.10;66.70;;;;;;5075631;28;20040;-46
2021/01/23 08:38:55;;;;;;;1.23;0.30;;;18.10;66.80;;;;;;5074394;28;20024;-47
2021/01/23 08:41:21;;;;;;;0.63;0.63;;;18.10;66.90;;;;;;5066764;28;20051;-47
2021/01/23 08:43:46;;;;;;;0.40;0.40;;;18.20;66.90;;;;;;5083609;28;20024;-47
2021/01/23 08:46:12;;;;;;;0.63;0.47;;;18.20;67.30;;;;;;5071788;28;20057;-47
2021/01/23 08:48:37;;;;;;;1.00;0.50;;;18.20;66.60;;;;;;5060729;28;20041;-47
2021/01/23 08:51:03;;;;;;;0.40;0.40;;;18.20;66.10;;;;;;5062927;28;20064;-47
2021/01/23 08:53:28;;;;;;;0.40;0.40;;;18.20;66.00;;;;;;5057596;28;20537;-46
2021/01/23 08:55:54;;;;;;;1.67;0.40;;;18.20;66.50;;;;;;5056107;28;20049;-47
2021/01/23 08:58:20;;;;;;;0.98;0.40;;;18.30;66.60;;;;;;5069644;28;20071;-44
2021/01/23 09:00:45;;;;;;;0.80;0.40;;;18.30;66.40;;;;;;5062694;28;20033;-47
2021/01/23 09:03:11;;;;;;;0.40;0.30;;;18.30;65.00;;;;;;5064420;28;20057;-48
2021/01/23 09:05:36;;;;;;;1.73;0.40;;;18.20;66.10;;;;;;5069263;28;20032;-47
2021/01/23 09:08:02;;;;;;;0.38;0.30;;;18.20;66.20;;;;;;5055300;28;20055;-46
2021/01/23 09:10:28;;;;;;;0.50;0.30;;;18.20;66.90;;;;;;5070112;28;20398;-47
2021/01/23 09:12:53;;;;;;;1.00;0.40;;;18.30;67.30;;;;;;5069019;28;20037;-47
2021/01/23 09:15:19;;;;;;;0.70;0.60;;;18.30;68.60;;;;;;5065077;28;20040;-45
2021/01/23 09:17:44;;;;;;;2.10;0.40;;;18.30;68.60;;;;;;5064412;28;20040;-36
2021/01/23 09:20:11;;;;;;;3.00;0.55;;;18.30;69.00;;;;;;5062569;28;20032;-44
2021/01/23 09:22:36;;;;;;;1.77;0.40;;;18.30;69.60;;;;;;5045227;28;20029;-47
2021/01/23 09:25:02;;;;;;;0.93;0.50;;;18.20;68.90;;;;;;5069187;28;20111;-41
2021/01/23 09:27:28;;;;;;;1.30;0.43;;;18.20;68.30;;;;;;5063344;28;20064;-44
2021/01/23 09:29:53;;;;;;;0.40;0.30;;;18.20;69.60;;;;;;5058419;28;20031;-44
2021/01/23 09:32:20;;;;;;;0.70;0.70;;;18.20;68.80;;;;;;5054826;28;20045;-46
2021/01/23 09:34:46;;;;;;;2.45;0.55;;;18.30;69.00;;;;;;5061679;28;20063;-47
2021/01/23 09:37:12;;;;;;;0.90;0.50;;;18.30;69.60;;;;;;5047852;28;20020;-45
2021/01/23 09:39:38;;;;;;;0.55;0.43;;;18.30;69.80;;;;;;5051462;28;20029;-44
2021/01/23 09:42:03;;;;;;;0.77;0.52;;;18.30;69.90;;;;;;5067634;28;20107;-43
2021/01/23 09:44:29;;;;;;;1.60;0.55;;;18.30;68.20;;;;;;5062746;28;20086;-44
2021/01/23 09:46:54;;;;;;;0.80;0.50;;;18.40;68.10;;;;;;5057334;28;20047;-43
2021/01/23 09:49:20;;;;;;;1.50;0.50;;;18.30;67.80;;;;;;5056338;28;20115;-45
2021/01/23 09:51:46;;;;;;;0.60;0.52;;;18.30;67.80;;;;;;5062487;28;20025;-46
2021/01/23 09:54:11;;;;;;;1.55;0.77;;;18.40;67.90;;;;;;5049226;28;20059;-47
2021/01/23 09:56:37;;;;;;;0.70;0.40;;;18.40;68.00;;;;;;5060814;28;20036;-47
2021/01/23 09:59:02;;;;;;;3.65;0.80;;;18.40;68.80;;;;;;5063657;28;20032;-46
2021/01/23 10:01:28;;;;;;;1.70;0.70;;;18.40;69.10;;;;;;5067238;28;20040;-46
2021/01/23 10:03:54;;;;;;;1.10;0.50;;;18.30;69.80;;;;;;5063565;28;20482;-48
2021/01/23 10:06:19;;;;;;;1.02;0.57;;;18.30;69.70;;;;;;5066264;28;20032;-46
2021/01/23 10:08:45;;;;;;;1.23;0.60;;;18.30;69.10;;;;;;5063929;28;20182;-45
2021/01/23 10:11:10;;;;;;;1.25;0.70;;;18.30;69.00;;;;;;5064606;28;20432;-48
2021/01/23 10:13:36;;;;;;;1.00;0.63;;;18.30;69.60;;;;;;5039521;28;20028;-46
2021/01/23 10:16:03;;;;;;;1.13;0.63;;;18.20;69.10;;;;;;5064743;28;20078;-46
2021/01/23 10:18:28;;;;;;;2.38;0.70;;;18.20;69.20;;;;;;5062493;28;20025;-47
2021/01/23 10:20:54;;;;;;;1.40;0.80;;;18.20;69.40;;;;;;5057433;28;20077;-46
2021/01/23 10:23:20;;;;;;;1.17;0.60;;;18.20;69.20;;;;;;5054453;28;20032;-43
2021/01/23 10:25:45;;;;;;;1.58;0.50;;;18.20;68.90;;;;;;5070888;28;20029;-43
2021/01/23 10:28:11;;;;;;;0.98;0.88;;;18.20;68.80;;;;;;5078778;28;20028;-44
2021/01/23 10:30:37;;;;;;;1.30;0.60;;;18.30;69.00;;;;;;5067202;28;20031;-45
2021/01/23 10:33:02;;;;;;;1.45;0.70;;;18.20;69.00;;;;;;5059567;28;20132;-45
2021/01/23 10:35:28;;;;;;;1.65;0.77;;;18.30;68.90;;;;;;5062730;28;20029;-43
2021/01/23 10:37:53;;;;;;;1.00;0.60;;;18.30;68.60;;;;;;5061990;28;20154;-44
2021/01/23 10:40:19;;;;;;;0.52;0.50;;;18.30;68.10;;;;;;5069336;28;20025;-44
2021/01/23 10:42:45;;;;;;;1.38;0.73;;;18.40;67.80;;;;;;5059092;28;20351;-46
2021/01/23 10:45:10;;;;;;;1.45;0.77;;;18.40;67.60;;;;;;5056627;28;20029;-44
2021/01/23 10:47:36;;;;;;;1.95;0.70;;;18.40;67.40;;;;;;5059940;28;20526;-46
2021/01/23 10:50:05;;;;;;;0.90;0.50;;;18.30;67.30;;;;;;5055261;28;20040;-46
2021/01/23 10:52:31;;;;;;;1.05;0.77;;;18.40;67.60;;;;;;5056647;28;20036;-47
2021/01/23 10:54:57;;;;;;;1.58;0.75;;;18.40;67.20;;;;;;5056537;28;20029;-46
2021/01/23 10:57:22;;;;;;;2.45;0.65;;;18.30;67.30;;;;;;5056651;28;20363;-46
2021/01/23 10:59:48;;;;;;;1.10;0.70;;;18.40;66.90;;;;;;5056381;28;20070;-44
2021/01/23 11:02:14;;;;;;;1.95;0.60;;;18.40;67.30;;;;;;5052735;28;20027;-44
2021/01/23 11:04:39;;;;;;;0.80;0.50;;;18.40;67.20;;;;;;5062143;28;20039;-39
2021/01/23 11:07:05;;;;;;;3.35;0.60;;;18.30;67.00;;;;;;5059551;28;20173;-45
2021/01/23 11:09:30;;;;;;;2.80;0.75;;;18.30;67.00;;;;;;5061951;28;20033;-45
2021/01/23 11:11:56;;;;;;;2.83;0.50;;;18.30;66.80;;;;;;5061982;28;20714;-45
2021/01/23 11:14:22;;;;;;;2.05;0.50;;;18.40;66.70;;;;;;5056044;28;20382;-46
2021/01/23 11:16:51;;;;;;;0.90;0.57;;;18.30;66.70;;;;;;5056884;28;20037;-43
2021/01/23 11:19:17;;;;;;;1.95;0.70;;;18.30;66.90;;;;;;5060141;28;20082;-46
2021/01/23 11:21:42;;;;;;;0.80;0.63;;;18.30;66.80;;;;;;5056629;28;20494;-44
2021/01/23 11:24:08;;;;;;;0.80;0.80;;;18.40;66.30;;;;;;5065522;28;20093;-44
2021/01/23 11:26:34;;;;;;;1.83;0.60;;;18.40;66.50;;;;;;5061467;28;20082;-44
2021/01/23 11:28:59;;;;;;;2.63;0.85;;;18.40;65.60;;;;;;5053094;28;20037;-46
2021/01/23 11:31:25;;;;;;;1.50;1.38;;;18.40;65.80;;;;;;5056377;28;20029;-46
2021/01/23 11:33:51;;;;;;;2.85;2.22;;;18.40;65.60;;;;;;5056309;28;20060;-46
2021/01/23 11:36:16;;;;;;;5.68;2.50;;;18.40;66.50;;;;;;5055992;28;20044;-45
2021/01/23 11:38:42;;;;;;;3.08;2.58;;;18.40;66.80;;;;;;5056181;28;20029;-44
2021/01/23 11:41:07;;;;;;;2.88;2.20;;;18.30;66.80;;;;;;5051996;28;20028;-43
2021/01/23 11:43:33;;;;;;;2.78;2.45;;;18.30;66.10;;;;;;5058598;28;20112;-45
2021/01/23 11:46:00;;;;;;;1.70;1.60;;;18.30;66.40;;;;;;5056176;28;20036;-44
2021/01/23 11:48:30;;;;;;;1.50;1.40;;;18.40;66.20;;;;;;4703189;28;10000027;-48
2021/01/23 11:50:56;;;;;;;2.10;1.80;;;18.40;65.90;;;;;;5053909;28;20029;-48
2021/01/23 11:53:21;;;;;;;1.58;1.48;;;18.50;65.90;;;;;;5061994;28;20509;-43
2021/01/23 11:55:49;;;;;;;1.52;1.42;;;18.60;65.60;;;;;;5060015;28;20032;-46
2021/01/23 11:58:14;;;;;;;1.63;1.52;;;18.60;65.40;;;;;;5061914;28;20067;-46
2021/01/23 12:00:40;;;;;;;3.20;1.38;;;18.60;65.30;;;;;;5055540;28;20182;-45
2021/01/23 12:03:06;;;;;;;1.80;1.40;;;18.70;65.00;;;;;;5058832;28;20036;-46
2021/01/23 12:05:33;;;;;;;2.55;1.40;;;18.70;64.90;;;;;;5056276;28;20105;-46
2021/01/23 12:07:58;;;;;;;1.35;1.20;;;18.70;64.80;;;;;;5052767;28;20144;-47
2021/01/23 12:10:24;;;;;;;1.83;1.50;;;18.70;64.50;;;;;;5054940;28;20099;-47
2021/01/23 12:12:49;;;;;;;1.35;1.10;;;18.70;64.50;;;;;;5051853;28;20452;-47
2021/01/23 12:15:16;;;;;;;1.75;1.13;;;18.70;64.90;;;;;;5052130;28;20044;-44
2021/01/23 12:17:42;;;;;;;1.50;1.40;;;18.70;64.90;;;;;;5051662;28;20058;-43
2021/01/23 12:20:09;;;;;;;1.77;1.30;;;18.70;65.30;;;;;;5047658;28;20037;-41
2021/01/23 12:22:34;;;;;;;1.20;1.10;;;18.60;64.90;;;;;;5053953;28;20029;-44
2021/01/23 12:25:00;;;;;;;1.52;1.42;;;18.70;65.00;;;;;;5066085;28;20580;-44
2021/01/23 12:27:26;;;;;;;2.28;1.58;;;18.70;65.40;;;;;;5066699;28;20029;-44
2021/01/23 12:29:51;;;;;;;2.60;1.38;;;18.70;65.10;;;;;;5068551;28;20048;-42
2021/01/23 12:32:17;;;;;;;4.07;1.40;;;18.60;65.30;;;;;;5063731;28;20041;-43
2021/01/23 12:34:43;;;;;;;1.10;1.00;;;18.70;65.80;;;;;;5053479;28;20048;-42
2021/01/23 12:37:09;;;;;;;2.53;1.70;;;18.70;65.70;;;;;;5055993;28;20040;-43
2021/01/23 12:39:35;;;;;;;7.18;1.50;;;18.80;65.70;;;;;;5055819;28;20433;-43
2021/01/23 12:42:01;;;;;;;1.65;1.17;;;18.70;65.30;;;;;;5055979;28;20033;-44
2021/01/23 12:44:26;;;;;;;2.20;1.30;;;18.70;65.40;;;;;;5053171;28;20032;-41
2021/01/23 12:46:52;;;;;;;2.90;1.20;;;18.70;65.60;;;;;;5065470;28;20537;-45
2021/01/23 12:49:18;;;;;;;0.80;0.80;;;18.70;65.40;;;;;;5061385;28;20024;-45
2021/01/23 12:51:43;;;;;;;1.25;1.15;;;18.80;65.20;;;;;;5057949;28;20040;-42
2021/01/23 12:54:09;;;;;;;0.80;0.80;;;18.80;65.20;;;;;;5066460;28;20048;-44
2021/01/23 12:56:35;;;;;;;1.17;0.90;;;18.70;65.10;;;;;;5063477;28;20452;-43
2021/01/23 12:59:00;;;;;;;0.80;0.75;;;18.70;65.10;;;;;;5059201;28;20032;-47
2021/01/23 13:01:26;;;;;;;0.88;0.77;;;18.70;65.00;;;;;;5069423;28;20072;-42
2021/01/23 13:03:51;;;;;;;1.95;0.70;;;18.80;64.90;;;;;;5058169;28;20021;-45
2021/01/23 13:06:18;;;;;;;0.77;0.77;;;18.70;65.00;;;;;;5055133;28;20032;-45
2021/01/23 13:08:43;;;;;;;1.40;0.90;;;18.70;64.90;;;;;;5057385;28;20028;-43
2021/01/23 13:11:09;;;;;;;2.28;0.70;;;18.70;65.00;;;;;;5057566;28;20509;-42
2021/01/23 13:13:34;;;;;;;0.70;0.65;;;18.70;65.70;;;;;;5051789;28;20034;-42
2021/01/23 13:16:00;;;;;;;1.17;0.60;;;18.70;65.10;;;;;;5056664;28;20048;-43
2021/01/23 13:18:26;;;;;;;1.00;0.75;;;18.70;65.20;;;;;;5060185;28;20103;-44
2021/01/23 13:20:51;;;;;;;1.27;0.70;;;18.80;64.90;;;;;;5067637;28;20131;-45
2021/01/23 13:23:17;;;;;;;0.50;0.50;;;18.80;64.70;;;;;;5071542;28;20543;-46
2021/01/23 13:25:47;;;;;;;0.60;0.60;;;18.80;64.60;;;;;;5070493;28;20463;-45
2021/01/23 13:28:13;;;;;;;0.63;0.50;;;18.80;64.70;;;;;;5063480;28;20016;-43
2021/01/23 13:30:38;;;;;;;0.93;0.60;;;18.80;64.50;;;;;;5061776;28;20033;-43
2021/01/23 13:33:05;;;;;;;0.55;0.55;;;18.90;64.30;;;;;;5064593;28;20067;-46
2021/01/23 13:35:30;;;;;;;0.68;0.38;;;18.90;64.40;;;;;;5070347;28;20037;-45
2021/01/23 13:37:56;;;;;;;0.63;0.43;;;18.90;64.60;;;;;;5070728;28;20032;-48
2021/01/23 13:40:22;;;;;;;1.65;0.40;;;18.90;64.20;;;;;;5068931;28;20028;-44
2021/01/23 13:42:47;;;;;;;0.40;0.40;;;19.00;64.20;;;;;;5060366;28;20033;-47
2021/01/23 13:45:13;;;;;;;0.82;0.45;;;19.00;64.00;;;;;;5057529;28;20085;-45
2021/01/23 13:47:38;;;;;;;0.40;0.40;;;19.00;64.00;;;;;;5056650;28;20494;-47
2021/01/23 13:50:05;;;;;;;1.30;0.50;;;18.90;64.30;;;;;;5035680;28;20032;-46
2021/01/23 13:52:30;;;;;;;0.75;0.50;;;18.80;64.40;;;;;;5059234;28;20028;-35
2021/01/23 13:54:56;;;;;;;0.50;0.50;;;18.90;64.50;;;;;;5058912;28;20054;-37
2021/01/23 13:57:22;;;;;;;0.60;0.50;;;18.90;64.50;;;;;;5056398;28;20033;-37
2021/01/23 13:59:47;;;;;;;0.43;0.30;;;19.00;64.10;;;;;;5068688;28;20033;-36
2021/01/23 14:02:13;;;;;;;0.60;0.40;;;19.10;63.90;;;;;;5061534;28;20083;-37
2021/01/23 14:04:39;;;;;;;0.73;0.57;;;19.20;63.80;;;;;;5065835;28;20056;-36
2021/01/23 14:07:04;;;;;;;0.30;0.30;;;19.20;63.60;;;;;;5056903;28;20039;-37
2021/01/23 14:09:30;;;;;;;1.20;0.60;;;19.20;63.50;;;;;;5056864;28;20037;-38
2021/01/23 14:11:57;;;;;;;0.77;0.45;;;19.10;63.50;;;;;;5059328;28;20112;-36
2021/01/23 14:14:23;;;;;;;1.63;0.70;;;18.90;64.00;;;;;;5061276;28;20032;-38
2021/01/23 14:16:49;;;;;;;0.32;0.30;;;18.90;64.30;;;;;;5061748;28;20033;-40
2021/01/23 14:19:14;;;;;;;0.50;0.40;;;18.80;64.40;;;;;;5059077;28;20024;-38
2021/01/23 14:21:40;;;;;;;0.52;0.30;;;18.80;64.60;;;;;;5059238;28;20036;-38
2021/01/23 14:24:06;;;;;;;0.57;0.30;;;18.80;64.30;;;;;;5060719;28;20103;-37
2021/01/23 14:26:32;;;;;;;0.75;0.40;;;18.80;64.20;;;;;;5059160;28;20025;-39
2021/01/23 14:28:57;;;;;;;1.15;0.40;;;18.70;64.20;;;;;;5045103;28;20078;-34
2021/01/23 14:31:23;;;;;;;0.45;0.40;;;18.70;64.30;;;;;;5071483;28;20664;-33
2021/01/23 14:33:48;;;;;;;0.60;0.45;;;18.60;64.40;;;;;;5057063;28;20025;-50
2021/01/23 14:36:14;;;;;;;0.90;0.30;;;18.60;64.60;;;;;;5058715;28;20056;-36
2021/01/23 14:38:40;;;;;;;0.30;0.30;;;18.50;64.60;;;;;;5062416;28;20404;-37
2021/01/23 14:41:06;;;;;;;0.52;0.30;;;18.50;64.70;;;;;;5062140;28;20036;-36
2021/01/23 14:43:32;;;;;;;1.20;0.40;;;18.50;64.70;;;;;;5063433;28;20016;-36
2021/01/23 14:45:57;;;;;;;0.43;0.35;;;18.50;64.70;;;;;;5063624;28;20106;-36
2021/01/23 14:48:23;;;;;;;0.50;0.50;;;18.50;64.60;;;;;;5065014;28;20537;-35
2021/01/23 14:50:48;;;;;;;0.50;0.40;;;18.50;64.60;;;;;;5064886;28;20051;-36
2021/01/23 14:53:14;;;;;;;0.30;0.22;;;18.50;64.60;;;;;;5058572;28;20035;-36
2021/01/23 14:55:40;;;;;;;0.20;0.20;;;18.50;64.60;;;;;;5059468;28;20060;-34
2021/01/23 14:58:05;;;;;;;0.75;0.32;;;18.50;64.40;;;;;;5067007;28;20024;-35
2021/01/23 15:00:31;;;;;;;0.52;0.38;;;18.50;64.60;;;;;;5064217;28;20084;-32
2021/01/23 15:02:56;;;;;;;0.75;0.50;;;18.60;64.20;;;;;;5066666;28;20039;-33
2021/01/23 15:05:22;;;;;;;1.83;0.30;;;18.60;64.30;;;;;;5055529;28;20021;-34
2021/01/23 15:07:47;;;;;;;0.93;0.40;;;18.50;64.40;;;;;;5062483;28;20035;-34
2021/01/23 15:10:13;;;;;;;0.50;0.30;;;18.50;64.50;;;;;;5062633;28;20055;-36
2021/01/23 15:12:39;;;;;;;0.30;0.30;;;18.50;64.50;;;;;;5063474;28;20028;-33
2021/01/23 15:15:05;;;;;;;0.28;0.20;;;18.40;64.40;;;;;;5067225;28;20394;-33
2021/01/23 15:17:31;;;;;;;0.60;0.30;;;18.40;64.40;;;;;;5060440;28;20063;-34
2021/01/23 15:19:56;;;;;;;0.52;0.38;;;18.50;64.20;;;;;;5061010;28;20061;-34
2021/01/23 15:22:22;;;;;;;0.55;0.50;;;18.40;64.20;;;;;;5060658;28;20032;-36
2021/01/23 15:24:47;;;;;;;0.57;0.30;;;18.40;64.30;;;;;;5053225;28;20056;-34
2021/01/23 15:27:13;;;;;;;0.70;0.30;;;18.40;64.30;;;;;;5057657;28;20078;-32
2021/01/23 15:29:39;;;;;;;0.30;0.22;;;18.40;64.20;;;;;;5062369;28;20036;-33
2021/01/23 15:32:04;;;;;;;0.80;0.32;;;18.40;64.20;;;;;;5065109;28;20541;-32
2021/01/23 15:34:30;;;;;;;0.52;0.30;;;18.40;64.20;;;;;;5063871;28;20025;-33
2021/01/23 15:36:56;;;;;;;0.65;0.60;;;18.30;64.20;;;;;;5063262;28;20401;-33
2021/01/23 15:39:21;;;;;;;2.83;2.60;;;18.30;64.10;;;;;;5053962;28;20025;-36
2021/01/23 15:41:47;;;;;;;2.58;2.03;;;18.30;64.10;;;;;;5058475;28;20516;-36
2021/01/23 15:44:12;;;;;;;2.60;1.70;;;18.40;63.70;;;;;;5060455;28;20032;-36
2021/01/23 15:46:38;;;;;;;1.48;1.38;;;18.40;63.50;;;;;;5060422;28;20102;-37
2021/01/23 15:49:06;;;;;;;6.07;2.03;;;18.50;64.40;;;;;;5059009;28;20024;-37
2021/01/23 15:51:33;;;;;;;1.70;1.60;;;18.50;63.80;;;;;;5059549;28;20036;-35
2021/01/23 15:53:58;;;;;;;2.92;2.70;;;18.60;64.20;;;;;;5058562;28;20135;-37
2021/01/23 15:56:24;;;;;;;3.90;3.28;;;18.60;63.50;;;;;;5051879;28;20040;-36
2021/01/23 15:58:49;;;;;;;2.78;2.58;;;18.50;63.70;;;;;;5061252;28;20083;-37
2021/01/23 16:01:16;;;;;;;3.30;2.40;;;18.50;64.00;;;;;;5064284;28;20033;-36
2021/01/23 16:03:42;;;;;;;2.78;2.42;;;18.50;64.40;;;;;;5062589;28;20025;-37
2021/01/23 16:06:08;;;;;;;2.60;2.40;;;18.50;64.30;;;;;;5060422;28;20071;-37
2021/01/23 16:08:34;;;;;;;2.83;2.63;;;18.50;64.30;;;;;;5055305;28;20035;-35
2021/01/23 16:10:59;;;;;;;2.60;2.40;;;18.60;64.20;;;;;;5058198;28;20036;-37
2021/01/23 16:13:25;;;;;;;3.58;3.22;;;18.60;64.20;;;;;;5063315;28;20028;-37
2021/01/23 16:15:51;;;;;;;4.40;2.75;;;18.60;64.20;;;;;;5063638;28;20142;-41
2021/01/23 16:18:16;;;;;;;3.35;2.83;;;18.60;64.30;;;;;;5062168;28;20155;-38
2021/01/23 16:20:42;;;;;;;3.05;2.58;;;18.60;64.30;;;;;;5062899;28;20037;-37
2021/01/23 16:23:08;;;;;;;2.60;2.40;;;18.60;64.30;;;;;;5064354;28;20778;-36
2021/01/23 16:25:34;;;;;;;2.72;2.53;;;18.60;64.30;;;;;;5057319;28;20025;-35
2021/01/23 16:28:00;;;;;;;3.13;2.42;;;18.60;64.50;;;;;;5060111;28;20051;-36
2021/01/23 16:30:26;;;;;;;1.92;1.83;;;18.50;64.50;;;;;;5053456;28;20406;-43
2021/01/23 16:32:52;;;;;;;5.05;2.55;;;18.60;64.50;;;;;;5061713;28;20067;-36
2021/01/23 16:35:18;;;;;;;3.78;2.30;;;18.50;64.40;;;;;;5062473;28;20068;-38
2021/01/23 16:37:44;;;;;;;2.53;2.30;;;18.60;64.50;;;;;;5059021;28;20097;-36
2021/01/23 16:40:10;;;;;;;3.75;2.28;;;18.60;64.30;;;;;;5061794;28;20449;-37
2021/01/23 16:42:36;;;;;;;5.07;2.13;;;18.60;64.40;;;;;;4704815;28;9999803;-37
2021/01/23 16:45:02;;;;;;;2.35;2.15;;;18.50;64.20;;;;;;5060089;28;20053;-36
2021/01/23 16:47:27;;;;;;;3.45;2.25;;;18.60;64.30;;;;;;5054110;28;20054;-41
2021/01/23 16:49:53;;;;;;;2.30;2.10;;;18.60;64.20;;;;;;5061943;28;20379;-38
2021/01/23 16:52:19;;;;;;;1.70;1.60;;;18.60;64.10;;;;;;5061271;28;20037;-37
2021/01/23 16:54:45;;;;;;;2.67;1.80;;;18.60;64.10;;;;;;5057796;28;20025;-35
2021/01/23 16:57:10;;;;;;;1.73;1.63;;;18.60;64.00;;;;;;5061355;28;20447;-47
2021/01/23 16:59:36;;;;;;;1.73;1.63;;;18.60;63.90;;;;;;5034365;28;20124;-36
2021/01/23 17:02:03;;;;;;;2.10;2.00;;;18.60;63.90;;;;;;5035645;28;20048;-41
2021/01/23 17:04:29;;;;;;;1.67;1.55;;;18.60;64.00;;;;;;5054716;28;20091;-36
2021/01/23 17:06:54;;;;;;;1.83;1.73;;;18.60;63.90;;;;;;5058512;28;20041;-38
2021/01/23 17:09:20;;;;;;;1.73;1.63;;;18.60;63.90;;;;;;5056965;28;20071;-35
2021/01/23 17:11:45;;;;;;;2.40;1.90;;;18.60;63.80;;;;;;5062708;28;20032;-42
2021/01/23 17:14:11;;;;;;;1.77;1.67;;;18.60;63.70;;;;;;5056498;28;20398;-34
2021/01/23 17:16:37;;;;;;;6.05;1.75;;;18.60;63.70;;;;;;5058496;28;20041;-35
2021/01/23 17:19:03;;;;;;;3.05;1.48;;;18.70;63.60;;;;;;5063293;28;20025;-36
2021/01/23 17:21:28;;;;;;;2.17;1.50;;;18.80;63.20;;;;;;5039841;28;20111;-38
2021/01/23 17:23:54;;;;;;;1.52;1.42;;;18.80;63.10;;;;;;5061234;28;20055;-36
2021/01/23 17:26:20;;;;;;;3.88;1.80;;;18.70;63.40;;;;;;5058025;28;20598;-36
2021/01/23 17:28:45;;;;;;;2.40;1.60;;;18.70;64.00;;;;;;5062101;28;20051;-39
2021/01/23 17:31:11;;;;;;;2.10;1.90;;;18.70;64.30;;;;;;5046556;28;20505;-39
2021/01/23 17:33:39;;;;;;;3.67;1.92;;;18.70;63.00;;;;;;5060710;28;20087;-37
2021/01/23 17:36:06;;;;;;;3.35;1.30;;;18.60;63.40;;;;;;5063382;28;20460;-37
2021/01/23 17:38:32;;;;;;;8.82;2.30;;;18.50;63.60;;;;;;5064264;28;20025;-34
2021/01/23 17:40:58;;;;;;;5.35;1.92;;;18.40;64.50;;;;;;5062294;28;20078;-34
2021/01/23 17:43:23;;;;;;;8.00;2.25;;;18.50;64.20;;;;;;5064764;28;20033;-36
2021/01/23 17:45:49;;;;;;;8.80;2.85;;;18.40;63.90;;;;;;5056878;28;20033;-38
2021/01/23 17:48:14;;;;;;;11.05;2.50;;;18.40;63.30;;;;;;5058773;28;20048;-35
2021/01/23 17:50:41;;;;;;;6.78;2.45;;;18.40;63.60;;;;;;5064368;28;20060;-35
2021/01/23 17:53:08;;;;;;;14.65;2.33;;;18.40;63.70;;;;;;5066429;28;20127;-42
2021/01/23 17:55:34;;;;;;;8.73;2.47;;;18.50;63.60;;;;;;5048023;28;20074;-40
2021/01/23 17:57:59;;;;;;;5.70;2.13;;;18.70;63.20;;;;;;5061312;28;20049;-40
2021/01/23 18:00:25;;;;;;;4.55;1.90;;;18.60;62.70;;;;;;5062964;28;20508;-42
2021/01/23 18:02:50;;;;;;;7.53;2.08;;;18.60;63.00;;;;;;5061714;28;20020;-36
2021/01/23 18:05:16;;;;;;;8.48;2.30;;;18.60;63.20;;;;;;5055880;28;20028;-37
2021/01/23 18:07:43;;;;;;;3.88;2.10;;;18.50;63.00;;;;;;5042455;28;20083;-37
2021/01/23 18:10:10;;;;;;;6.50;2.60;;;18.40;63.80;;;;;;5064624;28;20032;-37
2021/01/23 18:12:35;;;;;;;2.97;1.80;;;18.40;64.60;;;;;;5046131;28;20032;-37
2021/01/23 18:15:02;;;;;;;6.93;2.33;;;18.40;64.60;;;;;;5057838;28;20029;-37
2021/01/23 18:17:27;;;;;;;4.10;1.98;;;18.40;63.60;;;;;;5063788;28;20044;-37
2021/01/23 18:19:53;;;;;;;4.10;2.00;;;18.40;63.70;;;;;;5060593;28;20063;-36
2021/01/23 18:22:19;;;;;;;4.88;2.10;;;18.40;63.40;;;;;;5059208;28;20036;-40
2021/01/23 18:24:44;;;;;;;4.85;1.85;;;18.40;63.60;;;;;;5063103;28;20048;-33
2021/01/23 18:27:10;;;;;;;4.38;1.95;;;18.30;63.70;;;;;;5065668;28;20502;-34
2021/01/23 18:29:35;;;;;;;3.85;2.00;;;18.30;63.80;;;;;;5063737;28;20049;-34
2021/01/23 18:32:01;;;;;;;5.35;2.30;;;18.30;64.00;;;;;;5060601;28;20037;-33
2021/01/23 18:34:27;;;;;;;4.72;1.85;;;18.30;64.20;;;;;;5066739;28;20031;-34
2021/01/23 18:36:52;;;;;;;3.08;1.60;;;18.20;64.10;;;;;;5057579;28;20053;-38
2021/01/23 18:39:18;;;;;;;4.70;2.30;;;18.30;64.20;;;;;;5059482;28;20058;-35
2021/01/23 18:41:46;;;;;;;3.97;2.00;;;18.20;64.10;;;;;;5057276;28;20064;-36
2021/01/23 18:44:12;;;;;;;4.28;1.95;;;18.30;64.30;;;;;;5058816;28;20024;-36
2021/01/23 18:46:38;;;;;;;7.43;2.63;;;18.30;64.10;;;;;;5061220;28;20140;-35
2021/01/23 18:49:07;;;;;;;3.20;1.80;;;18.30;63.90;;;;;;5062452;28;20020;-36
2021/01/23 18:51:35;;;;;;;2.40;1.95;;;18.30;64.20;;;;;;5062745;28;20481;-36
2021/01/23 18:54:00;;;;;;;3.13;1.85;;;18.30;64.20;;;;;;5059604;28;20021;-36
2021/01/23 18:56:26;;;;;;;5.68;2.22;;;18.30;65.00;;;;;;5059712;28;20043;-28
2021/01/23 18:58:52;;;;;;;1.52;1.33;;;18.30;64.10;;;;;;5062937;28;20422;-33
2021/01/23 19:01:17;;;;;;;3.25;1.73;;;18.30;64.20;;;;;;5046113;28;20049;-33
2021/01/23 19:03:43;;;;;;;2.05;1.83;;;18.30;64.00;;;;;;5061862;28;20035;-33
2021/01/23 19:06:10;;;;;;;2.17;1.90;;;18.30;64.00;;;;;;5058611;28;20147;-34
2021/01/23 19:08:36;;;;;;;2.05;1.95;;;18.30;63.90;;;;;;5060004;28;20059;-34
2021/01/23 19:11:01;;;;;;;3.13;2.08;;;18.20;63.60;;;;;;5062449;28;20502;-26
2021/01/23 19:13:27;;;;;;;2.38;2.17;;;18.20;63.50;;;;;;5067107;28;20036;-34
2021/01/23 19:15:52;;;;;;;6.22;2.58;;;18.20;63.30;;;;;;5063910;28;20110;-34
2021/01/23 19:18:23;;;;;;;3.15;2.10;;;18.20;63.40;;;;;;5056694;28;20064;-37
2021/01/23 19:20:49;;;;;;;2.80;2.30;;;18.20;63.40;;;;;;5060848;28;20074;-49
2021/01/23 19:23:15;;;;;;;6.00;2.50;;;18.20;63.80;;;;;;5058414;28;20025;-44
2021/01/23 19:25:40;;;;;;;4.22;2.00;;;18.20;63.90;;;;;;5059822;28;20039;-46
2021/01/23 19:28:06;;;;;;;5.22;1.90;;;18.20;63.20;;;;;;5058451;28;20166;-45
2021/01/23 19:30:31;;;;;;;2.35;2.08;;;18.30;63.40;;;;;;5058889;28;20044;-41
2021/01/23 19:32:57;;;;;;;1.95;1.63;;;18.30;63.40;;;;;;5056236;28;20025;-46
2021/01/23 19:35:23;;;;;;;2.55;1.80;;;18.40;64.30;;;;;;5037070;28;20527;-44
2021/01/23 19:37:48;;;;;;;3.55;1.75;;;18.40;64.20;;;;;;5054188;28;20029;-41
2021/01/23 19:40:14;;;;;;;2.63;2.08;;;18.40;63.50;;;;;;5059506;28;20424;-44
2021/01/23 19:42:40;;;;;;;4.25;2.20;;;18.40;63.40;;;;;;5058920;28;20054;-43
2021/01/23 19:45:06;;;;;;;4.53;1.80;;;18.40;63.40;;;;;;5058601;28;20073;-44
2021/01/23 19:47:32;;;;;;;2.10;2.00;;;18.40;63.50;;;;;;5055316;28;20052;-45
2021/01/23 19:49:57;;;;;;;4.50;1.90;;;18.40;63.50;;;;;;5054613;28;20040;-39
2021/01/23 19:52:23;;;;;;;1.83;1.73;;;18.40;63.90;;;;;;5055407;28;20036;-42
2021/01/23 19:54:49;;;;;;;4.70;2.40;;;18.40;63.70;;;;;;5055627;28;20031;-44
2021/01/23 19:57:15;;;;;;;2.05;1.95;;;18.40;63.60;;;;;;5058694;28;20036;-43
2021/01/23 19:59:40;;;;;;;2.00;1.85;;;18.40;63.60;;;;;;5053628;28;20021;-45
2021/01/23 20:02:06;;;;;;;2.40;2.13;;;18.40;63.60;;;;;;5059005;28;20045;-44
2021/01/23 20:04:31;;;;;;;2.17;2.05;;;18.40;63.60;;;;;;5058506;28;20040;-41
2021/01/23 20:06:57;;;;;;;2.50;2.10;;;18.40;63.70;;;;;;4710962;28;9999745;-44
2021/01/23 20:09:24;;;;;;;4.32;2.17;;;18.40;63.70;;;;;;5056905;28;20021;-43
2021/01/23 20:11:52;;;;;;;3.97;1.92;;;18.40;64.10;;;;;;5053857;28;20056;-41
2021/01/23 20:14:17;;;;;;;3.53;2.10;;;18.40;63.80;;;;;;5055793;28;20025;-43
2021/01/23 20:16:43;;;;;;;1.77;1.50;;;18.50;63.40;;;;;;5056105;28;20051;-45
2021/01/23 20:19:09;;;;;;;2.95;2.05;;;18.70;62.90;;;;;;5049190;28;20104;-42
2021/01/23 20:21:35;;;;;;;1.80;1.70;;;18.70;62.60;;;;;;5049011;28;20052;-42
2021/01/23 20:24:01;;;;;;;17.58;2.28;;;18.70;62.80;;;;;;5055799;28;20108;-44
2021/01/23 20:26:28;;;;;;;2.15;1.95;;;18.60;62.80;;;;;;5053641;28;20186;-46